Time;durP1;ratioP1;P1;durP2;ratioP2;P2;SDS_P1;SDS_P2;PMS_P1;PMS_P2;Temp;Humidity;BMP_temperature;BMP_pressure;BME280_temperature;BME280_humidity;BME280_pressure;Samples;Min_cycle;Max_cycle;Signal;HPM_P1;HPM_P2
2022/10/16 00:01:52;;;;;;;0.63;0.60;;;17.00;99.90;;;;;;5075453;28;20037;-72
2022/10/16 00:04:18;;;;;;;1.25;0.70;;;17.20;99.90;;;;;;5074999;28;20089;-77
2022/10/16 00:06:43;;;;;;;1.58;0.65;;;17.20;99.90;;;;;;5073685;28;20056;-78
2022/10/16 00:09:10;;;;;;;0.88;0.50;;;17.20;99.90;;;;;;5074959;28;20418;-77
2022/10/16 00:11:37;;;;;;;0.65;0.50;;;17.10;99.90;;;;;;5073066;28;20488;-72
2022/10/16 00:14:06;;;;;;;1.45;0.80;;;17.20;99.90;;;;;;5073348;28;20666;-78
2022/10/16 00:16:33;;;;;;;4.10;0.55;;;17.50;99.90;;;;;;5074265;28;20123;-78
2022/10/16 00:18:59;;;;;;;1.58;0.80;;;17.50;99.90;;;;;;5073153;28;20077;-72
2022/10/16 00:21:27;;;;;;;5.50;0.93;;;17.40;99.90;;;;;;5071865;28;20041;-73
2022/10/16 00:24:01;;;;;;;0.77;0.60;;;17.30;99.90;;;;;;5073500;28;20079;-72
2022/10/16 00:26:29;;;;;;;1.00;0.60;;;17.20;99.90;;;;;;5074346;28;20392;-78
2022/10/16 00:28:55;;;;;;;0.95;0.55;;;17.10;99.90;;;;;;5073061;28;20043;-73
2022/10/16 00:31:22;;;;;;;0.88;0.73;;;17.10;99.90;;;;;;5073396;28;20093;-73
2022/10/16 00:33:48;;;;;;;2.13;0.80;;;17.10;99.90;;;;;;5073211;28;20032;-78
2022/10/16 00:36:17;;;;;;;0.82;0.60;;;17.10;99.90;;;;;;5074522;28;20113;-78
2022/10/16 00:38:43;;;;;;;1.42;0.73;;;17.20;99.90;;;;;;5074087;28;20531;-73
2022/10/16 00:41:17;;;;;;;1.65;0.68;;;17.20;99.90;;;;;;5073062;28;20048;-73
2022/10/16 00:43:45;;;;;;;2.17;0.90;;;17.10;99.90;;;;;;5074495;28;20040;-73
2022/10/16 00:46:18;;;;;;;1.67;0.95;;;17.20;99.90;;;;;;5074496;28;20070;-73
2022/10/16 00:48:51;;;;;;;0.68;0.57;;;17.20;99.90;;;;;;5074518;28;20128;-73
2022/10/16 00:51:22;;;;;;;1.25;0.75;;;17.20;99.90;;;;;;5074305;28;20045;-77
2022/10/16 00:53:49;;;;;;;1.65;0.90;;;17.30;99.90;;;;;;5074428;28;20507;-73
2022/10/16 00:56:16;;;;;;;0.85;0.60;;;17.30;99.90;;;;;;5072397;28;20046;-76
2022/10/16 00:58:41;;;;;;;0.80;0.70;;;17.30;99.90;;;;;;5072877;28;20033;-77
2022/10/16 01:01:07;;;;;;;0.90;0.63;;;17.20;99.90;;;;;;5074213;28;20058;-77
2022/10/16 01:03:35;;;;;;;0.95;0.70;;;17.20;99.90;;;;;;5073913;28;20047;-73
2022/10/16 01:06:24;;;;;;;0.85;0.68;;;17.30;99.90;;;;;;5073602;28;20067;-73
2022/10/16 01:09:25;;;;;;;1.17;0.80;;;17.40;99.90;;;;;;5072683;28;20033;-73
2022/10/16 01:12:14;;;;;;;2.75;1.00;;;17.40;99.90;;;;;;5073947;28;20107;-73
2022/10/16 01:14:54;;;;;;;3.35;0.60;;;17.30;99.90;;;;;;5073988;28;20081;-72
2022/10/16 01:17:37;;;;;;;1.63;0.68;;;17.20;99.90;;;;;;5073920;28;20033;-73
2022/10/16 01:20:06;;;;;;;1.27;0.70;;;17.20;99.90;;;;;;5073699;28;20040;-72
2022/10/16 01:23:06;;;;;;;1.80;0.65;;;17.10;99.90;;;;;;5073114;28;20044;-77
2022/10/16 01:26:03;;;;;;;1.50;0.80;;;17.10;99.90;;;;;;5055584;28;20101;-78
2022/10/16 01:28:38;;;;;;;0.60;0.57;;;17.20;99.90;;;;;;5061604;28;20056;-77
2022/10/16 01:31:04;;;;;;;2.53;0.73;;;17.10;99.90;;;;;;5052014;28;20041;-77
2022/10/16 01:33:37;;;;;;;0.90;0.60;;;16.90;99.90;;;;;;5052396;28;20106;-73
2022/10/16 01:36:18;;;;;;;1.85;0.80;;;17.10;99.90;;;;;;5052429;28;20033;-73
2022/10/16 01:38:47;;;;;;;1.30;0.70;;;17.30;99.90;;;;;;5053647;28;20049;-73
2022/10/16 01:41:19;;;;;;;1.20;0.73;;;17.30;99.90;;;;;;5053643;28;20063;-72
2022/10/16 01:44:13;;;;;;;0.65;0.60;;;17.30;99.90;;;;;;5052344;28;20044;-73
2022/10/16 01:46:42;;;;;;;1.08;0.65;;;17.20;99.90;;;;;;5053772;28;20045;-73
2022/10/16 01:49:10;;;;;;;1.20;0.70;;;17.20;99.90;;;;;;5052203;28;20080;-72
2022/10/16 01:51:37;;;;;;;1.00;0.60;;;17.20;99.90;;;;;;5052176;28;20443;-78
2022/10/16 01:54:06;;;;;;;0.70;0.50;;;17.30;99.90;;;;;;5051996;28;20041;-73
2022/10/16 01:56:33;;;;;;;2.72;0.85;;;17.10;99.90;;;;;;5053402;28;20041;-72
2022/10/16 01:59:05;;;;;;;1.52;0.80;;;17.10;99.90;;;;;;5053444;28;20427;-78
2022/10/16 02:01:33;;;;;;;0.95;0.70;;;17.10;99.90;;;;;;5053485;28;20072;-78
2022/10/16 02:04:08;;;;;;;3.20;0.80;;;17.10;99.90;;;;;;5053340;28;20037;-73
2022/10/16 02:06:34;;;;;;;1.88;0.60;;;17.00;99.90;;;;;;5053349;28;20103;-78
2022/10/16 02:09:00;;;;;;;0.77;0.50;;;16.70;99.90;;;;;;5052007;28;20177;-75
2022/10/16 02:11:26;;;;;;;1.20;1.00;;;16.70;99.90;;;;;;5053281;28;20041;-76
2022/10/16 02:13:59;;;;;;;2.13;0.68;;;16.20;99.90;;;;;;5053298;28;20396;-74
2022/10/16 02:16:39;;;;;;;3.63;0.90;;;15.90;99.90;;;;;;5053349;28;20045;-73
2022/10/16 02:19:06;;;;;;;3.70;1.08;;;15.90;99.90;;;;;;5051997;28;20076;-73
2022/10/16 02:21:51;;;;;;;1.38;0.77;;;16.00;99.90;;;;;;5053378;28;20037;-73
2022/10/16 02:24:44;;;;;;;2.03;1.02;;;15.90;99.90;;;;;;5053342;28;20037;-78
2022/10/16 02:27:24;;;;;;;0.77;0.68;;;15.90;99.90;;;;;;5053212;28;20045;-78
2022/10/16 02:29:53;;;;;;;;;;;15.80;99.90;;;;;;5053790;28;20064;-74
2022/10/16 02:32:30;;;;;;;0.80;0.70;;;16.00;99.90;;;;;;5053231;28;19909;-76
2022/10/16 02:34:57;;;;;;;1.08;0.77;;;16.00;99.90;;;;;;5053243;28;20040;-74
2022/10/16 02:37:25;;;;;;;1.13;0.68;;;;;;;;;;5056631;28;20094;-77
2022/10/16 02:39:51;;;;;;;1.50;0.98;;;16.20;99.90;;;;;;5055319;28;20075;-77
2022/10/16 02:42:18;;;;;;;1.77;0.82;;;16.30;99.90;;;;;;5056787;28;20045;-73
2022/10/16 02:44:44;;;;;;;17.25;5.43;;;16.40;99.90;;;;;;5055415;28;20040;-73
2022/10/16 02:47:10;;;;;;;6.03;2.63;;;16.60;99.90;;;;;;5056578;28;20041;-73
2022/10/16 02:49:35;;;;;;;4.13;1.13;;;16.80;99.90;;;;;;5056744;28;20048;-73
2022/10/16 02:52:01;;;;;;;0.88;0.70;;;16.80;99.90;;;;;;5055320;28;20167;-73
2022/10/16 02:54:27;;;;;;;1.75;0.82;;;16.80;99.90;;;;;;5055097;28;20068;-76
2022/10/16 02:56:53;;;;;;;3.80;1.27;;;16.90;99.90;;;;;;5055125;28;20116;-73
2022/10/16 02:59:18;;;;;;;3.72;1.42;;;16.90;99.90;;;;;;5055105;28;20128;-77
2022/10/16 03:01:44;;;;;;;2.90;1.35;;;17.00;99.90;;;;;;5069329;28;20025;-77
2022/10/16 03:04:10;;;;;;;1.27;0.70;;;;;;;;;;5075329;28;20098;-74
2022/10/16 03:06:36;;;;;;;1.38;0.63;;;16.60;99.90;;;;;;5076281;28;20056;-75
2022/10/16 03:09:02;;;;;;;1.50;0.93;;;16.60;99.90;;;;;;5075969;28;20147;-75
2022/10/16 03:11:28;;;;;;;2.47;0.90;;;16.60;99.90;;;;;;5076085;28;20090;-75
2022/10/16 03:13:53;;;;;;;3.60;0.98;;;16.50;99.90;;;;;;5076138;28;20032;-75
2022/10/16 03:16:19;;;;;;;1.90;1.02;;;16.50;99.90;;;;;;5074764;28;20048;-75
2022/10/16 03:18:49;;;;;;;3.10;1.02;;;16.50;99.90;;;;;;5074791;28;20388;-77
2022/10/16 03:21:15;;;;;;;1.80;1.10;;;16.50;99.90;;;;;;5074586;28;20098;-73
2022/10/16 03:23:41;;;;;;;1.30;0.77;;;16.60;99.90;;;;;;5076041;28;20036;-73
2022/10/16 03:26:07;;;;;;;1.00;0.80;;;16.50;99.90;;;;;;5076343;28;20032;-72
2022/10/16 03:28:32;;;;;;;1.00;0.73;;;16.60;99.90;;;;;;5075707;28;20041;-72
2022/10/16 03:30:58;;;;;;;0.90;0.60;;;16.60;99.90;;;;;;5074142;28;20465;-73
2022/10/16 03:33:24;;;;;;;1.70;0.77;;;16.70;99.90;;;;;;5074155;28;20029;-72
2022/10/16 03:35:54;;;;;;;0.75;0.65;;;16.60;99.90;;;;;;5075468;28;20040;-78
2022/10/16 03:38:21;;;;;;;1.35;0.77;;;16.40;99.90;;;;;;5075057;28;20139;-78
2022/10/16 03:40:47;;;;;;;1.92;0.90;;;16.30;99.90;;;;;;5074838;28;20403;-78
2022/10/16 03:43:12;;;;;;;1.50;1.00;;;16.20;99.90;;;;;;5075587;28;20059;-73
2022/10/16 03:45:38;;;;;;;1.65;0.75;;;16.20;99.90;;;;;;5074862;28;20396;-77
2022/10/16 03:48:04;;;;;;;4.20;0.90;;;16.20;99.90;;;;;;5075150;28;20159;-72
2022/10/16 03:50:30;;;;;;;0.75;0.52;;;16.30;99.90;;;;;;5074094;28;20117;-73
2022/10/16 03:52:56;;;;;;;1.08;0.80;;;16.40;99.90;;;;;;5075598;28;20045;-78
2022/10/16 03:55:21;;;;;;;1.15;0.70;;;16.50;99.90;;;;;;5075321;28;20020;-77
2022/10/16 03:57:47;;;;;;;1.13;0.95;;;16.50;99.90;;;;;;5075328;28;20048;-74
2022/10/16 04:00:13;;;;;;;1.20;0.77;;;16.40;99.90;;;;;;5073898;28;20029;-78
2022/10/16 04:02:40;;;;;;;3.25;1.10;;;16.40;99.90;;;;;;5073749;28;20125;-76
2022/10/16 04:05:06;;;;;;;1.00;0.57;;;16.10;99.90;;;;;;5074663;28;20059;-76
2022/10/16 04:07:32;;;;;;;1.92;0.65;;;16.00;99.90;;;;;;5074854;28;20055;-73
2022/10/16 04:09:58;;;;;;;3.72;1.02;;;15.90;99.90;;;;;;5073444;28;20124;-73
2022/10/16 04:12:27;;;;;;;1.35;0.80;;;16.00;99.90;;;;;;5074984;28;20457;-78
2022/10/16 04:14:53;;;;;;;1.00;0.55;;;15.90;99.90;;;;;;5074911;28;20076;-78
2022/10/16 04:17:19;;;;;;;1.48;0.80;;;15.90;99.90;;;;;;5073586;28;20502;-78
2022/10/16 04:19:45;;;;;;;1.13;0.75;;;15.90;99.90;;;;;;5074603;28;20037;-73
2022/10/16 04:22:11;;;;;;;4.55;0.95;;;15.80;99.90;;;;;;5074590;28;20055;-73
2022/10/16 04:24:37;;;;;;;0.90;0.70;;;15.70;99.90;;;;;;5074519;28;20047;-77
2022/10/16 04:27:03;;;;;;;0.60;0.60;;;15.80;99.90;;;;;;5073179;28;20451;-73
2022/10/16 04:29:29;;;;;;;2.80;0.80;;;15.90;99.90;;;;;;5073291;28;20392;-73
2022/10/16 04:31:54;;;;;;;1.73;0.90;;;15.80;99.90;;;;;;5074573;28;20044;-73
2022/10/16 04:34:20;;;;;;;3.50;1.08;;;15.80;99.90;;;;;;5074509;28;20048;-73
2022/10/16 04:36:49;;;;;;;2.13;0.90;;;15.90;99.90;;;;;;5071119;28;20135;-76
2022/10/16 04:39:16;;;;;;;4.88;1.30;;;16.00;99.90;;;;;;5071240;28;20037;-73
2022/10/16 04:41:42;;;;;;;4.45;1.42;;;16.00;99.90;;;;;;5070783;28;20043;-76
2022/10/16 04:44:07;;;;;;;1.95;1.20;;;16.00;99.90;;;;;;5070536;28;20036;-76
2022/10/16 04:46:33;;;;;;;2.30;1.20;;;16.00;99.90;;;;;;5071235;28;20036;-73
2022/10/16 04:48:59;;;;;;;2.35;1.70;;;15.90;99.90;;;;;;5071078;28;20040;-73
2022/10/16 04:51:26;;;;;;;3.72;1.80;;;15.80;99.90;;;;;;5071246;28;20050;-73
2022/10/16 04:53:51;;;;;;;2.10;1.38;;;15.80;99.90;;;;;;5073815;28;20086;-75
2022/10/16 04:56:17;;;;;;;4.78;1.67;;;15.80;99.90;;;;;;5071878;28;20040;-74
2022/10/16 04:58:43;;;;;;;3.13;1.40;;;15.70;99.90;;;;;;5074018;28;20047;-75
2022/10/16 05:01:09;;;;;;;3.70;1.63;;;15.80;99.90;;;;;;5074143;28;20490;-74
2022/10/16 05:03:35;;;;;;;1.95;1.45;;;15.80;99.90;;;;;;5072609;28;20032;-75
2022/10/16 05:06:00;;;;;;;2.38;1.33;;;15.60;99.90;;;;;;5072586;28;20055;-74
2022/10/16 05:08:26;;;;;;;3.00;1.40;;;15.50;99.90;;;;;;5072206;28;20047;-74
2022/10/16 05:10:52;;;;;;;4.28;1.50;;;15.50;99.90;;;;;;5072223;28;20527;-75
2022/10/16 05:13:18;;;;;;;1.98;1.50;;;15.50;99.90;;;;;;5072145;28;20118;-75
2022/10/16 05:15:48;;;;;;;2.72;1.60;;;15.50;99.90;;;;;;5071999;28;20484;-75
2022/10/16 05:18:14;;;;;;;5.03;2.15;;;15.50;99.90;;;;;;5070473;28;20086;-75
2022/10/16 05:20:40;;;;;;;2.42;1.63;;;15.60;99.90;;;;;;5071289;28;20048;-75
2022/10/16 05:23:06;;;;;;;6.15;1.40;;;15.60;99.90;;;;;;5072345;28;20029;-75
2022/10/16 05:25:31;;;;;;;3.55;1.83;;;15.50;99.90;;;;;;5074106;28;20044;-75
2022/10/16 05:27:57;;;;;;;2.40;1.75;;;15.40;99.90;;;;;;5072530;28;20049;-74
2022/10/16 05:30:23;;;;;;;3.05;1.55;;;15.50;99.90;;;;;;5073174;28;20093;-74
2022/10/16 05:32:50;;;;;;;3.40;1.60;;;15.40;99.90;;;;;;5064977;28;20615;-75
2022/10/16 05:35:19;;;;;;;3.67;2.10;;;15.50;99.90;;;;;;5051759;28;20047;-74
2022/10/16 05:37:45;;;;;;;4.10;1.70;;;15.50;99.90;;;;;;5033991;28;20072;-74
2022/10/16 05:40:12;;;;;;;1.95;1.63;;;15.60;99.90;;;;;;5051668;28;20585;-74
2022/10/16 05:42:38;;;;;;;3.92;1.80;;;15.60;99.90;;;;;;5051579;28;20373;-74
2022/10/16 05:45:06;;;;;;;3.45;2.03;;;15.50;99.90;;;;;;5057499;28;20089;-74
2022/10/16 05:47:32;;;;;;;5.68;1.63;;;15.40;99.90;;;;;;5071744;28;20045;-75
2022/10/16 05:49:57;;;;;;;3.03;2.00;;;15.40;99.90;;;;;;5071690;28;20071;-74
2022/10/16 05:52:23;;;;;;;3.22;1.67;;;15.40;99.90;;;;;;5070473;28;20052;-74
2022/10/16 05:54:49;;;;;;;3.88;1.80;;;15.50;99.90;;;;;;5072217;28;20496;-75
2022/10/16 05:57:15;;;;;;;2.22;1.67;;;15.50;99.90;;;;;;5069946;28;20571;-76
2022/10/16 05:59:41;;;;;;;2.85;1.77;;;15.60;99.90;;;;;;5059198;28;20036;-75
2022/10/16 06:02:12;;;;;;;2.88;1.95;;;15.50;99.90;;;;;;5058037;28;20064;-76
2022/10/16 06:04:38;;;;;;;7.93;2.10;;;15.40;99.90;;;;;;5070753;28;20498;-73
2022/10/16 06:07:04;;;;;;;5.50;1.92;;;15.10;99.90;;;;;;5090197;28;20068;-74
2022/10/16 06:09:30;;;;;;;1.98;1.60;;;14.80;99.90;;;;;;5093101;28;20257;-76
2022/10/16 06:11:55;;;;;;;2.83;1.55;;;14.90;99.90;;;;;;5095554;28;20043;-73
2022/10/16 06:14:21;;;;;;;6.53;2.00;;;15.20;99.90;;;;;;5095365;28;20044;-74
2022/10/16 06:16:47;;;;;;;3.83;1.67;;;15.50;99.90;;;;;;5095371;28;20050;-75
2022/10/16 06:19:13;;;;;;;4.07;2.38;;;15.80;99.90;;;;;;5095246;28;20044;-74
2022/10/16 06:21:38;;;;;;;3.72;2.08;;;15.80;99.90;;;;;;5095608;28;20047;-75
2022/10/16 06:24:04;;;;;;;3.03;1.77;;;15.90;99.90;;;;;;5095734;28;20476;-74
2022/10/16 06:26:31;;;;;;;3.05;2.15;;;16.00;99.90;;;;;;5094333;28;20048;-74
2022/10/16 06:28:59;;;;;;;2.40;1.50;;;16.00;99.90;;;;;;5094167;28;20044;-74
2022/10/16 06:31:27;;;;;;;3.35;1.58;;;16.00;99.90;;;;;;5094489;28;20127;-74
2022/10/16 06:33:53;;;;;;;2.80;1.75;;;15.80;99.90;;;;;;5094154;28;20032;-74
2022/10/16 06:36:20;;;;;;;2.40;2.00;;;16.00;99.90;;;;;;5093667;28;20028;-74
2022/10/16 06:38:46;;;;;;;3.97;2.03;;;16.20;99.90;;;;;;5095368;28;20071;-74
2022/10/16 06:41:14;;;;;;;3.65;2.45;;;16.10;99.90;;;;;;5095000;28;20511;-74
2022/10/16 06:43:40;;;;;;;3.80;2.03;;;16.00;99.90;;;;;;5093711;28;20036;-75
2022/10/16 06:46:09;;;;;;;3.95;2.28;;;16.00;99.90;;;;;;5072533;28;20040;-74
2022/10/16 06:48:36;;;;;;;5.25;2.30;;;15.90;99.90;;;;;;5073370;28;20044;-74
2022/10/16 06:51:08;;;;;;;3.75;2.45;;;15.90;99.90;;;;;;5071511;28;20037;-74
2022/10/16 06:53:36;;;;;;;4.03;2.70;;;15.80;99.90;;;;;;5064354;28;20040;-75
2022/10/16 06:56:15;;;;;;;4.68;2.55;;;15.70;99.90;;;;;;5073185;28;20039;-75
2022/10/16 06:58:44;;;;;;;4.57;2.55;;;15.50;99.90;;;;;;5074937;28;20170;-75
2022/10/16 07:01:11;;;;;;;2.88;2.40;;;15.50;99.90;;;;;;5076401;28;20504;-74
2022/10/16 07:03:39;;;;;;;3.67;2.42;;;15.30;99.90;;;;;;5076279;28;20144;-74
2022/10/16 07:06:06;;;;;;;3.60;2.30;;;15.20;99.90;;;;;;5074897;28;20051;-74
2022/10/16 07:08:34;;;;;;;4.93;2.30;;;15.20;99.90;;;;;;5074551;28;20520;-74
2022/10/16 07:11:02;;;;;;;6.22;2.25;;;15.30;99.90;;;;;;5073604;28;20082;-73
2022/10/16 07:13:28;;;;;;;6.25;3.00;;;15.40;99.90;;;;;;5074116;28;20048;-76
2022/10/16 07:15:53;;;;;;;4.68;3.00;;;15.60;99.90;;;;;;5073808;28;20024;-76
2022/10/16 07:18:19;;;;;;;5.25;2.80;;;15.70;99.90;;;;;;5073771;28;20436;-74
2022/10/16 07:20:45;;;;;;;4.25;2.88;;;15.80;99.90;;;;;;5076000;28;20039;-77
2022/10/16 07:23:11;;;;;;;4.68;3.22;;;15.90;99.90;;;;;;5075730;28;20507;-75
2022/10/16 07:25:36;;;;;;;4.65;2.78;;;15.90;99.90;;;;;;5075708;28;20391;-74
2022/10/16 07:28:03;;;;;;;5.10;3.60;;;16.00;99.90;;;;;;5075689;28;20504;-75
2022/10/16 07:30:28;;;;;;;8.05;3.60;;;16.10;99.90;;;;;;5075904;28;20028;-74
2022/10/16 07:32:54;;;;;;;4.82;3.53;;;16.20;99.90;;;;;;5074652;28;20492;-75
2022/10/16 07:35:20;;;;;;;4.60;3.20;;;16.20;99.90;;;;;;5074409;28;20093;-74
2022/10/16 07:37:46;;;;;;;4.78;3.15;;;16.30;99.90;;;;;;5075431;28;20036;-75
2022/10/16 07:40:12;;;;;;;10.70;3.97;;;16.30;99.90;;;;;;5074349;28;20036;-76
2022/10/16 07:42:38;;;;;;;5.43;3.65;;;16.30;99.90;;;;;;5075593;28;20507;-75
2022/10/16 07:45:04;;;;;;;10.73;4.13;;;16.30;99.90;;;;;;5075510;28;20051;-75
2022/10/16 07:47:30;;;;;;;7.35;3.70;;;16.30;99.90;;;;;;5075305;28;20044;-75
2022/10/16 07:49:56;;;;;;;5.32;3.38;;;;;;;;;;5075303;28;20071;-77
2022/10/16 07:52:22;;;;;;;10.93;4.80;;;16.40;99.90;;;;;;5075052;28;20051;-73
2022/10/16 07:54:48;;;;;;;7.63;4.43;;;16.40;99.90;;;;;;5074178;28;20033;-76
2022/10/16 07:57:19;;;;;;;6.63;3.55;;;16.60;99.90;;;;;;5073910;28;20439;-77
2022/10/16 07:59:46;;;;;;;7.90;3.97;;;16.80;99.90;;;;;;5074970;28;20044;-77
2022/10/16 08:02:12;;;;;;;7.05;4.18;;;17.30;99.90;;;;;;5074892;28;20492;-77
2022/10/16 08:04:38;;;;;;;6.68;3.92;;;17.70;99.90;;;;;;5074823;28;20082;-74
2022/10/16 08:07:04;;;;;;;5.00;3.35;;;18.00;99.90;;;;;;5073512;28;20045;-75
2022/10/16 08:09:29;;;;;;;7.05;4.00;;;18.40;99.90;;;;;;5074783;28;20080;-79
2022/10/16 08:11:55;;;;;;;5.95;3.50;;;18.70;99.90;;;;;;5072603;28;21046;-72
2022/10/16 08:14:21;;;;;;;4.90;3.67;;;18.70;99.90;;;;;;5065624;28;20047;-79
2022/10/16 08:16:47;;;;;;;7.18;3.83;;;18.30;99.90;;;;;;5051814;28;20120;-77
2022/10/16 08:19:13;;;;;;;8.20;3.90;;;18.60;99.90;;;;;;5052486;28;20484;-78
2022/10/16 08:21:39;;;;;;;7.68;4.07;;;18.90;99.90;;;;;;5051010;28;20093;-73
2022/10/16 08:24:07;;;;;;;4.68;3.13;;;19.00;99.90;;;;;;5051579;28;20415;-76
2022/10/16 08:26:34;;;;;;;5.35;3.20;;;19.20;99.90;;;;;;5050311;28;20064;-73
2022/10/16 08:29:00;;;;;;;8.20;3.28;;;19.30;99.90;;;;;;5051752;28;20032;-74
2022/10/16 08:31:27;;;;;;;6.60;3.05;;;19.50;99.90;;;;;;5050894;28;20357;-79
2022/10/16 08:33:56;;;;;;;6.78;3.30;;;19.60;99.90;;;;;;5051646;28;20092;-78
2022/10/16 08:36:22;;;;;;;4.60;3.72;;;20.00;99.90;;;;;;5050457;28;20412;-72
2022/10/16 08:38:50;;;;;;;5.05;3.75;;;20.30;99.90;;;;;;5050784;28;20120;-75
2022/10/16 08:41:49;;;;;;;11.13;3.28;;;20.50;99.90;;;;;;5052284;28;20683;-73
2022/10/16 08:44:30;;;;;;;5.82;3.55;;;20.50;99.90;;;;;;5051920;28;20538;-74
2022/10/16 08:47:19;;;;;;;4.43;2.63;;;20.80;99.90;;;;;;5067478;28;20508;-76
2022/10/16 08:49:56;;;;;;;6.82;3.40;;;20.90;99.90;;;;;;5071235;28;20040;-78
2022/10/16 08:52:23;;;;;;;7.38;3.00;;;21.10;99.90;;;;;;5072036;28;20078;-78
2022/10/16 08:54:53;;;;;;;4.00;3.03;;;21.10;99.90;;;;;;5071201;28;20427;-76
2022/10/16 08:57:22;;;;;;;6.13;3.45;;;21.10;99.90;;;;;;5069154;28;20044;-76
2022/10/16 08:59:48;;;;;;;6.20;3.35;;;21.20;99.90;;;;;;5068968;28;20512;-79
2022/10/16 09:02:26;;;;;;;4.28;2.70;;;21.20;99.90;;;;;;5071096;28;20119;-78
2022/10/16 09:05:14;;;;;;;4.43;2.67;;;21.00;99.90;;;;;;5070873;28;20123;-77
2022/10/16 09:07:57;;;;;;;4.88;3.08;;;20.50;99.90;;;;;;5051091;28;20052;-80
2022/10/16 09:10:32;;;;;;;2.80;2.40;;;20.40;99.90;;;;;;5050802;28;20055;-80
2022/10/16 09:13:11;;;;;;;6.93;2.83;;;20.40;99.90;;;;;;5068482;28;20500;-82
2022/10/16 09:16:17;;;;;;;2.85;1.83;;;20.50;99.90;;;;;;5071544;28;20040;-78
2022/10/16 09:19:08;;;;;;;2.88;1.98;;;20.50;99.90;;;;;;5070152;28;20036;-82
2022/10/16 09:21:40;;;;;;;3.70;2.22;;;20.40;99.90;;;;;;5072060;28;20102;-80
2022/10/16 09:24:16;;;;;;;3.53;2.33;;;20.50;99.90;;;;;;5072078;28;20419;-75
2022/10/16 09:26:42;;;;;;;2.35;2.13;;;20.50;99.90;;;;;;5071978;28;20582;-84
2022/10/16 09:29:24;;;;;;;3.42;2.38;;;20.40;99.90;;;;;;5071285;28;20032;-84
2022/10/16 09:31:52;;;;;;;3.30;2.45;;;20.40;99.90;;;;;;5069866;28;20044;-80
2022/10/16 09:34:41;;;;;;;4.75;2.47;;;20.40;99.90;;;;;;5069324;28;20040;-82
2022/10/16 09:37:14;;;;;;;4.10;2.40;;;20.60;99.90;;;;;;5066825;28;20135;-77
2022/10/16 09:39:48;;;;;;;3.80;2.13;;;20.90;99.90;;;;;;5071922;28;20047;-74
2022/10/16 09:42:23;;;;;;;4.55;2.40;;;21.30;99.90;;;;;;5071438;28;20040;-79
2022/10/16 09:44:53;;;;;;;4.50;2.30;;;21.30;99.90;;;;;;5073305;28;20107;-75
2022/10/16 09:47:30;;;;;;;4.53;2.47;;;21.10;99.90;;;;;;5074809;28;20059;-77
2022/10/16 09:50:01;;;;;;;5.20;2.60;;;21.00;99.90;;;;;;5075924;28;20115;-79
2022/10/16 09:52:28;;;;;;;7.32;2.67;;;20.80;99.90;;;;;;5075525;28;20032;-77
2022/10/16 09:54:59;;;;;;;4.47;2.90;;;20.70;99.90;;;;;;5074575;28;20085;-74
2022/10/16 09:57:25;;;;;;;2.85;2.40;;;20.70;99.90;;;;;;5074906;28;20403;-77
2022/10/16 09:59:54;;;;;;;5.97;2.70;;;20.70;99.90;;;;;;5076050;28;20044;-78
2022/10/16 10:02:26;;;;;;;6.40;2.80;;;20.90;99.90;;;;;;5074107;28;20526;-75
2022/10/16 10:04:54;;;;;;;8.63;3.00;;;21.20;99.90;;;;;;5074404;28;20488;-79
2022/10/16 10:07:38;;;;;;;3.40;2.45;;;21.20;99.90;;;;;;5075666;28;20127;-76
2022/10/16 10:10:06;;;;;;;4.05;2.22;;;21.40;99.90;;;;;;5074684;28;20037;-76
2022/10/16 10:12:35;;;;;;;4.20;2.40;;;21.40;99.90;;;;;;5062867;28;20495;-80
2022/10/16 10:15:12;;;;;;;6.38;2.55;;;21.70;99.90;;;;;;5063507;28;20043;-78
2022/10/16 10:17:55;;;;;;;3.60;2.45;;;21.70;99.90;;;;;;5072233;28;20040;-80
2022/10/16 10:20:28;;;;;;;3.95;2.63;;;21.80;99.90;;;;;;5072164;28;20064;-80
2022/10/16 10:22:55;;;;;;;3.08;2.35;;;21.70;99.90;;;;;;5068897;28;20036;-79
2022/10/16 10:25:27;;;;;;;7.75;2.53;;;22.00;99.90;;;;;;5074496;28;20051;-77
2022/10/16 10:28:29;;;;;;;3.92;2.45;;;22.10;99.90;;;;;;5072408;28;20048;-78
2022/10/16 10:30:57;;;;;;;3.33;2.50;;;21.90;99.90;;;;;;5074648;28;20036;-77
2022/10/16 10:33:26;;;;;;;3.75;2.90;;;22.00;99.90;;;;;;5073518;28;20604;-75
2022/10/16 10:36:39;;;;;;;2.80;2.40;;;22.20;99.90;;;;;;5074280;28;20041;-73
2022/10/16 10:39:32;;;;;;;5.30;2.72;;;22.20;99.90;;;;;;5052768;28;20500;-76
2022/10/16 10:42:29;;;;;;;3.78;2.70;;;22.20;99.90;;;;;;5065993;28;20025;-75
2022/10/16 10:45:25;;;;;;;4.15;2.53;;;22.10;99.90;;;;;;5070667;28;20048;-75
2022/10/16 10:48:12;;;;;;;4.60;2.60;;;22.00;99.90;;;;;;5057102;28;20178;-75
2022/10/16 10:50:51;;;;;;;7.13;2.63;;;22.00;99.90;;;;;;5061919;28;20112;-76
2022/10/16 10:53:32;;;;;;;4.22;2.53;;;22.20;99.90;;;;;;5072574;28;20119;-75
2022/10/16 10:56:07;;;;;;;6.00;2.75;;;22.10;99.90;;;;;;5073781;28;20032;-76
2022/10/16 10:58:45;;;;;;;5.53;2.97;;;22.10;99.90;;;;;;5073442;28;20404;-76
2022/10/16 11:01:20;;;;;;;3.72;2.72;;;22.20;99.90;;;;;;5071273;28;20052;-77
2022/10/16 11:04:44;;;;;;;5.20;2.60;;;22.40;99.90;;;;;;5072414;28;20043;-77
2022/10/16 11:07:20;;;;;;;5.88;2.40;;;22.30;99.90;;;;;;5069934;28;20044;-76
2022/10/16 11:09:52;;;;;;;3.00;2.70;;;22.50;99.90;;;;;;5072253;28;20044;-77
2022/10/16 11:12:31;;;;;;;5.70;2.60;;;22.50;99.90;;;;;;5073499;28;20044;-77
2022/10/16 11:15:15;;;;;;;3.90;2.22;;;22.60;99.90;;;;;;5070760;28;20045;-77
2022/10/16 11:17:57;;;;;;;3.30;2.60;;;22.50;99.90;;;;;;5052833;28;20068;-77
2022/10/16 11:20:37;;;;;;;4.90;2.60;;;22.40;99.90;;;;;;5063851;28;20135;-77
2022/10/16 11:23:21;;;;;;;3.58;2.58;;;22.60;99.90;;;;;;5072503;28;20044;-76
2022/10/16 11:25:48;;;;;;;3.17;2.38;;;22.40;99.90;;;;;;5073522;28;20508;-76
2022/10/16 11:28:38;;;;;;;8.95;2.10;;;22.60;99.90;;;;;;5073365;28;20040;-76
2022/10/16 11:31:32;;;;;;;4.07;2.87;;;22.70;99.90;;;;;;5071705;28;20028;-76
2022/10/16 11:34:41;;;;;;;4.35;2.42;;;22.60;99.90;;;;;;5052963;28;20033;-75
2022/10/16 11:37:20;;;;;;;5.15;2.42;;;22.80;99.90;;;;;;5021996;28;232091;-73
2022/10/16 11:39:47;;;;;;;4.38;2.10;;;22.60;99.90;;;;;;5051576;28;20048;-76
2022/10/16 11:42:21;;;;;;;5.57;2.10;;;22.70;99.90;;;;;;5055011;28;20362;-75
2022/10/16 11:45:06;;;;;;;2.75;2.00;;;22.70;99.90;;;;;;5067725;28;20047;-75
2022/10/16 11:47:55;;;;;;;3.88;2.13;;;22.90;99.90;;;;;;5071993;28;20393;-76
2022/10/16 11:50:37;;;;;;;8.80;2.35;;;22.90;99.90;;;;;;5070694;28;20511;-78
2022/10/16 11:53:32;;;;;;;4.15;2.40;;;23.00;99.90;;;;;;5070026;28;20127;-76
2022/10/16 11:55:58;;;;;;;5.65;2.20;;;23.00;99.90;;;;;;5070424;28;20044;-75
2022/10/16 11:58:36;;;;;;;2.97;2.25;;;22.70;99.90;;;;;;5077387;28;20036;-75
2022/10/16 12:01:05;;;;;;;3.50;2.28;;;22.90;99.90;;;;;;5086589;28;20040;-75
2022/10/16 12:03:58;;;;;;;2.25;1.90;;;22.90;99.90;;;;;;5085351;28;20040;-74
2022/10/16 12:06:48;;;;;;;3.55;2.00;;;23.00;99.90;;;;;;5067733;28;20178;-74
2022/10/16 12:09:28;;;;;;;6.75;2.65;;;22.90;99.90;;;;;;5070641;28;20055;-75
2022/10/16 12:11:55;;;;;;;3.17;2.05;;;22.80;99.90;;;;;;5078086;28;20040;-76
2022/10/16 12:14:27;;;;;;;4.60;2.30;;;22.80;99.90;;;;;;5081917;28;20525;-76
2022/10/16 12:16:56;;;;;;;3.38;2.05;;;22.90;99.90;;;;;;5080201;28;20047;-75
2022/10/16 12:19:24;;;;;;;2.22;1.95;;;22.80;99.90;;;;;;5076300;28;20131;-74
2022/10/16 12:21:52;;;;;;;5.80;2.28;;;22.90;99.90;;;;;;5077440;28;20044;-75
2022/10/16 12:24:38;;;;;;;5.40;2.42;;;22.90;99.90;;;;;;5074956;28;20048;-75
2022/10/16 12:27:07;;;;;;;3.58;2.30;;;22.80;99.90;;;;;;5079854;28;20555;-74
2022/10/16 12:29:43;;;;;;;4.55;2.50;;;22.80;99.90;;;;;;5081480;28;20503;-76
2022/10/16 12:32:31;;;;;;;5.57;2.40;;;22.90;99.90;;;;;;5076981;28;20478;-75
2022/10/16 12:34:58;;;;;;;7.85;2.35;;;22.60;99.90;;;;;;5072556;28;20040;-76
2022/10/16 12:37:35;;;;;;;3.58;2.28;;;22.60;99.90;;;;;;5082214;28;20093;-75
2022/10/16 12:40:29;;;;;;;4.85;2.42;;;22.60;99.90;;;;;;5081007;28;20046;-72
2022/10/16 12:42:55;;;;;;;3.67;1.92;;;22.70;99.90;;;;;;5054464;28;20041;-73
2022/10/16 12:45:33;;;;;;;4.45;1.88;;;22.40;99.90;;;;;;5054018;28;20041;-73
2022/10/16 12:48:01;;;;;;;2.97;2.10;;;22.40;99.90;;;;;;5055320;28;20060;-73
2022/10/16 12:50:32;;;;;;;5.60;2.40;;;22.40;99.90;;;;;;5074054;28;20127;-76
2022/10/16 12:52:59;;;;;;;3.10;1.95;;;22.70;99.90;;;;;;5073916;28;20048;-76
2022/10/16 12:55:27;;;;;;;3.00;2.10;;;22.70;99.90;;;;;;5072908;28;20048;-76
2022/10/16 12:57:58;;;;;;;3.22;2.30;;;22.70;99.90;;;;;;5074055;28;20043;-75
2022/10/16 13:00:55;;;;;;;3.72;2.38;;;22.90;99.90;;;;;;5073413;28;20455;-72
2022/10/16 13:04:02;;;;;;;5.22;2.28;;;22.90;99.90;;;;;;5074157;28;20033;-75
2022/10/16 13:06:51;;;;;;;3.78;2.30;;;22.80;99.90;;;;;;5077197;28;20165;-68
2022/10/16 13:09:32;;;;;;;7.10;2.15;;;22.80;99.90;;;;;;5092593;28;20133;-71
2022/10/16 13:12:20;;;;;;;3.80;2.10;;;22.80;99.90;;;;;;5062545;28;20047;-69